sensor_id;sensor_type;location;lat;lon;timestamp;pressure;altitude;pressure_sealevel;temperature;humidity
44453;BME280;30155;52.164;21.236;2023-01-13T00:00:30;100167.07;;;4.41;85.84
44453;BME280;30155;52.164;21.236;2023-01-13T00:05:24;100163.95;;;4.35;85.85
44453;BME280;30155;52.164;21.236;2023-01-13T00:10:17;100168.42;;;4.30;85.80
44453;BME280;30155;52.164;21.236;2023-01-13T00:15:10;100173.48;;;4.27;85.73
44453;BME280;30155;52.164;21.236;2023-01-13T00:20:04;100172.21;;;4.26;85.78
44453;BME280;30155;52.164;21.236;2023-01-13T00:24:57;100175.13;;;4.25;85.73
44453;BME280;30155;52.164;21.236;2023-01-13T00:29:52;100174.04;;;4.24;85.61
44453;BME280;30155;52.164;21.236;2023-01-13T00:34:45;100171.23;;;4.22;85.56
44453;BME280;30155;52.164;21.236;2023-01-13T00:39:37;100171.50;;;4.19;85.50
44453;BME280;30155;52.164;21.236;2023-01-13T00:44:30;100176.95;;;4.18;85.66
44453;BME280;30155;52.164;21.236;2023-01-13T00:49:24;100175.17;;;4.16;85.52
44453;BME280;30155;52.164;21.236;2023-01-13T00:54:17;100173.44;;;4.16;85.63
44453;BME280;30155;52.164;21.236;2023-01-13T00:59:11;100163.96;;;4.15;85.62
44453;BME280;30155;52.164;21.236;2023-01-13T01:04:05;100158.13;;;4.14;85.66
44453;BME280;30155;52.164;21.236;2023-01-13T01:08:58;100150.56;;;4.14;85.80
44453;BME280;30155;52.164;21.236;2023-01-13T01:13:53;100148.86;;;4.14;85.67
44453;BME280;30155;52.164;21.236;2023-01-13T01:18:48;100153.55;;;4.11;85.68
44453;BME280;30155;52.164;21.236;2023-01-13T01:23:41;100148.27;;;4.07;85.73
44453;BME280;30155;52.164;21.236;2023-01-13T01:28:34;100140.20;;;4.07;85.86
44453;BME280;30155;52.164;21.236;2023-01-13T01:33:27;100130.09;;;4.07;85.77
44453;BME280;30155;52.164;21.236;2023-01-13T01:38:20;100120.02;;;4.09;85.87
44453;BME280;30155;52.164;21.236;2023-01-13T01:43:17;100118.54;;;4.11;85.92
44453;BME280;30155;52.164;21.236;2023-01-13T01:48:36;100114.49;;;4.12;85.92
44453;BME280;30155;52.164;21.236;2023-01-13T01:53:31;100108.02;;;4.14;86.02
44453;BME280;30155;52.164;21.236;2023-01-13T01:58:29;100103.98;;;4.16;85.98
44453;BME280;30155;52.164;21.236;2023-01-13T02:03:24;100088.84;;;4.15;85.80
44453;BME280;30155;52.164;21.236;2023-01-13T02:08:18;100082.67;;;4.10;85.95
44453;BME280;30155;52.164;21.236;2023-01-13T02:13:12;100081.06;;;4.03;85.90
44453;BME280;30155;52.164;21.236;2023-01-13T02:34:55;100067.73;;;3.98;86.43
44453;BME280;30155;52.164;21.236;2023-01-13T02:39:58;100067.46;;;4.01;86.37
44453;BME280;30155;52.164;21.236;2023-01-13T02:45:10;100065.44;;;4.02;86.40
44453;BME280;30155;52.164;21.236;2023-01-13T02:50:11;100068.81;;;4.06;86.39
44453;BME280;30155;52.164;21.236;2023-01-13T02:55:08;100069.45;;;4.09;86.53
44453;BME280;30155;52.164;21.236;2023-01-13T03:00:05;100059.16;;;4.14;86.42
44453;BME280;30155;52.164;21.236;2023-01-13T03:04:59;100052.91;;;4.18;86.48
44453;BME280;30155;52.164;21.236;2023-01-13T03:20:32;100038.78;;;4.27;86.68
44453;BME280;30155;52.164;21.236;2023-01-13T03:25:39;100034.71;;;4.28;86.76
44453;BME280;30155;52.164;21.236;2023-01-13T03:30:43;100031.30;;;4.29;86.90
44453;BME280;30155;52.164;21.236;2023-01-13T03:35:44;100030.95;;;4.29;86.85
44453;BME280;30155;52.164;21.236;2023-01-13T03:40:48;100032.54;;;4.30;86.95
44453;BME280;30155;52.164;21.236;2023-01-13T03:45:43;100032.81;;;4.33;87.14
44453;BME280;30155;52.164;21.236;2023-01-13T03:50:55;100030.22;;;4.38;87.11
44453;BME280;30155;52.164;21.236;2023-01-13T03:55:54;100028.77;;;4.42;87.09
44453;BME280;30155;52.164;21.236;2023-01-13T04:00:57;100025.98;;;4.45;87.22
44453;BME280;30155;52.164;21.236;2023-01-13T04:05:57;100021.45;;;4.49;87.13
44453;BME280;30155;52.164;21.236;2023-01-13T04:11:04;100024.81;;;4.52;87.07
44453;BME280;30155;52.164;21.236;2023-01-13T04:15:58;100021.15;;;4.55;87.08
44453;BME280;30155;52.164;21.236;2023-01-13T04:20:53;100015.92;;;4.59;86.96
44453;BME280;30155;52.164;21.236;2023-01-13T04:25:48;100014.30;;;4.63;87.00
44453;BME280;30155;52.164;21.236;2023-01-13T04:30:41;100011.45;;;4.65;86.97
44453;BME280;30155;52.164;21.236;2023-01-13T04:35:35;100011.53;;;4.68;86.90
44453;BME280;30155;52.164;21.236;2023-01-13T04:40:28;100007.67;;;4.70;86.83
44453;BME280;30155;52.164;21.236;2023-01-13T04:45:21;100006.53;;;4.73;86.86
44453;BME280;30155;52.164;21.236;2023-01-13T04:50:14;100006.59;;;4.75;86.88
44453;BME280;30155;52.164;21.236;2023-01-13T04:55:10;100005.45;;;4.77;86.91
44453;BME280;30155;52.164;21.236;2023-01-13T05:00:05;100006.50;;;4.77;86.91
44453;BME280;30155;52.164;21.236;2023-01-13T05:04:58;100007.07;;;4.79;86.80
44453;BME280;30155;52.164;21.236;2023-01-13T05:09:51;100007.81;;;4.81;86.91
44453;BME280;30155;52.164;21.236;2023-01-13T05:14:44;100005.45;;;4.83;86.96
44453;BME280;30155;52.164;21.236;2023-01-13T05:19:54;100008.21;;;4.83;86.93
44453;BME280;30155;52.164;21.236;2023-01-13T05:24:47;100005.48;;;4.84;87.00
44453;BME280;30155;52.164;21.236;2023-01-13T05:29:58;100006.86;;;4.84;87.13
44453;BME280;30155;52.164;21.236;2023-01-13T05:34:51;100008.23;;;4.84;87.22
44453;BME280;30155;52.164;21.236;2023-01-13T05:39:43;100004.61;;;4.83;87.07
44453;BME280;30155;52.164;21.236;2023-01-13T05:44:54;100009.93;;;4.83;87.18
44453;BME280;30155;52.164;21.236;2023-01-13T05:49:47;100004.96;;;4.84;87.13
44453;BME280;30155;52.164;21.236;2023-01-13T05:54:39;100011.36;;;4.85;87.14
44453;BME280;30155;52.164;21.236;2023-01-13T05:59:33;100010.68;;;4.86;87.31
44453;BME280;30155;52.164;21.236;2023-01-13T06:04:26;100019.27;;;4.86;87.49
44453;BME280;30155;52.164;21.236;2023-01-13T06:09:19;100026.10;;;4.84;87.82
44453;BME280;30155;52.164;21.236;2023-01-13T06:14:13;100030.13;;;4.81;88.25
44453;BME280;30155;52.164;21.236;2023-01-13T06:19:06;100034.69;;;4.79;88.64
44453;BME280;30155;52.164;21.236;2023-01-13T06:24:00;100034.77;;;4.76;88.82
44453;BME280;30155;52.164;21.236;2023-01-13T06:28:53;100031.43;;;4.73;89.10
44453;BME280;30155;52.164;21.236;2023-01-13T06:33:52;100033.77;;;4.71;89.22
44453;BME280;30155;52.164;21.236;2023-01-13T06:38:50;100029.81;;;4.70;89.51
44453;BME280;30155;52.164;21.236;2023-01-13T06:43:44;100026.72;;;4.70;89.52
44453;BME280;30155;52.164;21.236;2023-01-13T06:48:37;100029.42;;;4.69;89.77
44453;BME280;30155;52.164;21.236;2023-01-13T06:53:30;100035.21;;;4.68;89.93
44453;BME280;30155;52.164;21.236;2023-01-13T06:58:23;100035.17;;;4.66;89.92
44453;BME280;30155;52.164;21.236;2023-01-13T07:03:17;100032.77;;;4.66;90.25
44453;BME280;30155;52.164;21.236;2023-01-13T07:08:10;100030.38;;;4.67;90.38
44453;BME280;30155;52.164;21.236;2023-01-13T07:13:04;100028.56;;;4.69;90.34
44453;BME280;30155;52.164;21.236;2023-01-13T07:18:15;100027.13;;;4.72;90.61
44453;BME280;30155;52.164;21.236;2023-01-13T07:23:07;100030.64;;;4.75;90.70
44453;BME280;30155;52.164;21.236;2023-01-13T07:28:00;100034.02;;;4.79;90.79
44453;BME280;30155;52.164;21.236;2023-01-13T07:32:54;100039.15;;;4.85;90.90
44453;BME280;30155;52.164;21.236;2023-01-13T07:37:47;100037.92;;;4.89;90.97
44453;BME280;30155;52.164;21.236;2023-01-13T07:42:40;100038.08;;;4.94;90.99
44453;BME280;30155;52.164;21.236;2023-01-13T07:47:51;100040.92;;;4.99;91.01
44453;BME280;30155;52.164;21.236;2023-01-13T07:52:44;100036.55;;;5.02;91.14
44453;BME280;30155;52.164;21.236;2023-01-13T07:57:37;100038.16;;;5.04;91.21
44453;BME280;30155;52.164;21.236;2023-01-13T08:02:30;100038.44;;;5.07;91.29
44453;BME280;30155;52.164;21.236;2023-01-13T08:07:23;100039.20;;;5.11;91.33
44453;BME280;30155;52.164;21.236;2023-01-13T08:12:16;100038.50;;;5.16;91.47
44453;BME280;30155;52.164;21.236;2023-01-13T08:17:26;100037.44;;;5.21;91.34
44453;BME280;30155;52.164;21.236;2023-01-13T08:22:19;100035.70;;;5.26;91.31
44453;BME280;30155;52.164;21.236;2023-01-13T08:27:13;100038.93;;;5.32;91.35
44453;BME280;30155;52.164;21.236;2023-01-13T08:32:06;100037.05;;;5.39;91.33
44453;BME280;30155;52.164;21.236;2023-01-13T08:36:58;100036.02;;;5.45;91.44
44453;BME280;30155;52.164;21.236;2023-01-13T08:41:51;100037.21;;;5.51;91.40
44453;BME280;30155;52.164;21.236;2023-01-13T08:46:48;100036.54;;;5.58;91.48
44453;BME280;30155;52.164;21.236;2023-01-13T08:51:41;100040.00;;;5.66;91.47
44453;BME280;30155;52.164;21.236;2023-01-13T08:56:34;100035.36;;;5.72;91.42
44453;BME280;30155;52.164;21.236;2023-01-13T09:01:27;100040.49;;;5.78;91.42
44453;BME280;30155;52.164;21.236;2023-01-13T09:06:20;100039.57;;;5.83;91.42
44453;BME280;30155;52.164;21.236;2023-01-13T09:11:25;100044.30;;;5.86;91.51
44453;BME280;30155;52.164;21.236;2023-01-13T09:16:38;100047.38;;;5.92;91.40
44453;BME280;30155;52.164;21.236;2023-01-13T09:21:31;100042.04;;;5.98;91.39
44453;BME280;30155;52.164;21.236;2023-01-13T09:26:24;100036.04;;;6.05;91.29
44453;BME280;30155;52.164;21.236;2023-01-13T09:31:17;100031.33;;;6.09;91.06
44453;BME280;30155;52.164;21.236;2023-01-13T09:36:10;100031.91;;;6.12;91.06
44453;BME280;30155;52.164;21.236;2023-01-13T09:41:03;100028.19;;;6.15;91.32
44453;BME280;30155;52.164;21.236;2023-01-13T09:46:42;100022.88;;;6.16;91.09
44453;BME280;30155;52.164;21.236;2023-01-13T09:51:42;100021.57;;;6.19;91.03
44453;BME280;30155;52.164;21.236;2023-01-13T09:56:37;100022.03;;;6.24;91.12
44453;BME280;30155;52.164;21.236;2023-01-13T10:01:48;100018.84;;;6.28;90.99
44453;BME280;30155;52.164;21.236;2023-01-13T10:06:51;100015.30;;;6.31;90.97
44453;BME280;30155;52.164;21.236;2023-01-13T10:11:48;100010.41;;;6.35;90.97
44453;BME280;30155;52.164;21.236;2023-01-13T10:17:14;100008.29;;;6.41;91.18
44453;BME280;30155;52.164;21.236;2023-01-13T10:27:31;100005.77;;;6.43;90.97
44453;BME280;30155;52.164;21.236;2023-01-13T10:32:25;100000.45;;;6.44;90.92
44453;BME280;30155;52.164;21.236;2023-01-13T10:37:26;100001.00;;;6.45;91.15
44453;BME280;30155;52.164;21.236;2023-01-13T10:42:21;99998.47;;;6.47;90.91
44453;BME280;30155;52.164;21.236;2023-01-13T10:47:28;99986.28;;;6.49;90.99
44453;BME280;30155;52.164;21.236;2023-01-13T10:52:28;99984.23;;;6.51;91.08
44453;BME280;30155;52.164;21.236;2023-01-13T10:57:24;99987.15;;;6.50;90.88
44453;BME280;30155;52.164;21.236;2023-01-13T11:02:29;99981.64;;;6.50;91.11
44453;BME280;30155;52.164;21.236;2023-01-13T11:12:33;99968.66;;;6.55;91.09
44453;BME280;30155;52.164;21.236;2023-01-13T11:17:38;99977.48;;;6.56;91.17
44453;BME280;30155;52.164;21.236;2023-01-13T11:22:38;99973.90;;;6.59;91.19
44453;BME280;30155;52.164;21.236;2023-01-13T11:32:36;99969.54;;;6.72;91.08
44453;BME280;30155;52.164;21.236;2023-01-13T11:37:37;99966.57;;;6.79;90.77
44453;BME280;30155;52.164;21.236;2023-01-13T11:47:32;99962.39;;;6.94;90.38
44453;BME280;30155;52.164;21.236;2023-01-13T12:29:15;99939.48;;;7.42;89.17
44453;BME280;30155;52.164;21.236;2023-01-13T12:34:43;99935.00;;;7.42;89.09
44453;BME280;30155;52.164;21.236;2023-01-13T12:40:21;99931.43;;;7.44;89.26
44453;BME280;30155;52.164;21.236;2023-01-13T12:55:18;99938.84;;;7.44;89.04
44453;BME280;30155;52.164;21.236;2023-01-13T13:00:13;99939.48;;;7.42;89.17
44453;BME280;30155;52.164;21.236;2023-01-13T13:10:29;99940.37;;;7.33;89.33
44453;BME280;30155;52.164;21.236;2023-01-13T13:15:26;99936.90;;;7.32;89.24
44453;BME280;30155;52.164;21.236;2023-01-13T13:31:14;99942.13;;;7.44;89.13
44453;BME280;30155;52.164;21.236;2023-01-13T13:41:26;99947.75;;;7.41;89.21
44453;BME280;30155;52.164;21.236;2023-01-13T13:46:44;99948.02;;;7.37;89.10
44453;BME280;30155;52.164;21.236;2023-01-13T13:51:59;99948.13;;;7.34;89.24
44453;BME280;30155;52.164;21.236;2023-01-13T13:56:53;99947.36;;;7.30;89.08
44453;BME280;30155;52.164;21.236;2023-01-13T14:01:53;99950.05;;;7.25;89.05
44453;BME280;30155;52.164;21.236;2023-01-13T14:07:01;99951.98;;;7.17;88.88
44453;BME280;30155;52.164;21.236;2023-01-13T14:12:04;99955.31;;;7.11;89.08
44453;BME280;30155;52.164;21.236;2023-01-13T14:16:58;99955.04;;;7.05;89.04
44453;BME280;30155;52.164;21.236;2023-01-13T14:21:52;99954.95;;;7.00;89.08
44453;BME280;30155;52.164;21.236;2023-01-13T14:26:45;99956.08;;;6.97;89.32
44453;BME280;30155;52.164;21.236;2023-01-13T14:31:42;99958.77;;;6.94;89.07
44453;BME280;30155;52.164;21.236;2023-01-13T14:36:36;99960.27;;;6.91;89.09
44453;BME280;30155;52.164;21.236;2023-01-13T14:46:44;99966.38;;;6.85;89.32
44453;BME280;30155;52.164;21.236;2023-01-13T14:51:37;99959.75;;;6.82;89.55
44453;BME280;30155;52.164;21.236;2023-01-13T14:56:48;99958.34;;;6.81;89.41
44453;BME280;30155;52.164;21.236;2023-01-13T15:01:44;99962.98;;;6.79;89.48
44453;BME280;30155;52.164;21.236;2023-01-13T15:06:37;99958.64;;;6.79;89.62
44453;BME280;30155;52.164;21.236;2023-01-13T15:11:30;99954.49;;;6.77;89.53
44453;BME280;30155;52.164;21.236;2023-01-13T15:16:24;99962.58;;;6.76;89.30
44453;BME280;30155;52.164;21.236;2023-01-13T15:21:18;99958.25;;;6.76;89.38
44453;BME280;30155;52.164;21.236;2023-01-13T15:26:18;99963.41;;;6.76;89.36
44453;BME280;30155;52.164;21.236;2023-01-13T15:31:11;99960.84;;;6.76;89.37
44453;BME280;30155;52.164;21.236;2023-01-13T15:36:08;99959.81;;;6.76;89.27
44453;BME280;30155;52.164;21.236;2023-01-13T15:41:08;99956.89;;;6.77;89.22
44453;BME280;30155;52.164;21.236;2023-01-13T15:46:09;99960.34;;;6.77;89.04
44453;BME280;30155;52.164;21.236;2023-01-13T15:51:19;99956.23;;;6.78;88.83
44453;BME280;30155;52.164;21.236;2023-01-13T15:56:23;99961.25;;;6.80;88.90
44453;BME280;30155;52.164;21.236;2023-01-13T16:01:17;99963.17;;;6.80;88.69
44453;BME280;30155;52.164;21.236;2023-01-13T16:06:15;99962.98;;;6.80;88.79
44453;BME280;30155;52.164;21.236;2023-01-13T16:11:10;99964.02;;;6.81;88.64
44453;BME280;30155;52.164;21.236;2023-01-13T16:16:15;99963.84;;;6.81;88.41
44453;BME280;30155;52.164;21.236;2023-01-13T16:21:11;99962.85;;;6.82;88.46
44453;BME280;30155;52.164;21.236;2023-01-13T16:26:05;99963.41;;;6.84;88.20
44453;BME280;30155;52.164;21.236;2023-01-13T16:30:59;99974.98;;;6.86;87.99
44453;BME280;30155;52.164;21.236;2023-01-13T16:35:54;99976.58;;;6.87;87.85
44453;BME280;30155;52.164;21.236;2023-01-13T16:41:03;99975.76;;;6.90;87.85
44453;BME280;30155;52.164;21.236;2023-01-13T16:45:56;99986.29;;;6.91;87.71
44453;BME280;30155;52.164;21.236;2023-01-13T16:50:49;99984.90;;;6.91;87.54
44453;BME280;30155;52.164;21.236;2023-01-13T16:55:43;99987.17;;;6.93;87.51
44453;BME280;30155;52.164;21.236;2023-01-13T17:00:36;99984.41;;;6.92;87.46
44453;BME280;30155;52.164;21.236;2023-01-13T17:05:29;99983.02;;;6.92;87.39
44453;BME280;30155;52.164;21.236;2023-01-13T17:10:24;99978.38;;;6.92;87.48
44453;BME280;30155;52.164;21.236;2023-01-13T17:15:20;99976.82;;;6.91;87.36
44453;BME280;30155;52.164;21.236;2023-01-13T17:20:14;99977.50;;;6.91;87.19
44453;BME280;30155;52.164;21.236;2023-01-13T17:25:10;99985.74;;;6.90;87.35
44453;BME280;30155;52.164;21.236;2023-01-13T17:30:04;99989.36;;;6.89;87.19
44453;BME280;30155;52.164;21.236;2023-01-13T17:34:57;99992.13;;;6.90;87.11
44453;BME280;30155;52.164;21.236;2023-01-13T17:39:52;100001.80;;;6.91;86.85
44453;BME280;30155;52.164;21.236;2023-01-13T17:44:46;100002.13;;;6.91;86.91
44453;BME280;30155;52.164;21.236;2023-01-13T17:49:41;100002.66;;;6.91;86.71
44453;BME280;30155;52.164;21.236;2023-01-13T17:54:33;100012.30;;;6.91;87.17
44453;BME280;30155;52.164;21.236;2023-01-13T17:59:26;100019.27;;;6.86;87.44
44453;BME280;30155;52.164;21.236;2023-01-13T18:04:22;100023.98;;;6.81;87.89
44453;BME280;30155;52.164;21.236;2023-01-13T18:09:17;100015.25;;;6.75;88.26
44453;BME280;30155;52.164;21.236;2023-01-13T18:14:11;100009.12;;;6.70;88.35
44453;BME280;30155;52.164;21.236;2023-01-13T18:19:04;100005.89;;;6.65;88.87
44453;BME280;30155;52.164;21.236;2023-01-13T18:24:13;100007.88;;;6.61;88.95
44453;BME280;30155;52.164;21.236;2023-01-13T18:29:24;100010.04;;;6.57;89.36
44453;BME280;30155;52.164;21.236;2023-01-13T18:34:18;100009.66;;;6.55;89.51
44453;BME280;30155;52.164;21.236;2023-01-13T18:39:11;100013.93;;;6.54;89.75
44453;BME280;30155;52.164;21.236;2023-01-13T18:44:04;100014.92;;;6.53;89.89
44453;BME280;30155;52.164;21.236;2023-01-13T18:48:57;100018.17;;;6.51;90.01
44453;BME280;30155;52.164;21.236;2023-01-13T18:53:50;100023.83;;;6.51;90.19
44453;BME280;30155;52.164;21.236;2023-01-13T18:58:44;100031.41;;;6.50;90.12
44453;BME280;30155;52.164;21.236;2023-01-13T19:03:42;100027.79;;;6.49;90.22
44453;BME280;30155;52.164;21.236;2023-01-13T19:08:35;100042.05;;;6.48;90.28
44453;BME280;30155;52.164;21.236;2023-01-13T19:13:28;100038.94;;;6.48;90.30
44453;BME280;30155;52.164;21.236;2023-01-13T19:18:21;100038.77;;;6.48;90.31
44453;BME280;30155;52.164;21.236;2023-01-13T19:23:14;100038.77;;;6.47;90.23
44453;BME280;30155;52.164;21.236;2023-01-13T19:28:07;100045.30;;;6.47;90.22
44453;BME280;30155;52.164;21.236;2023-01-13T19:33:00;100044.80;;;6.49;90.25
44453;BME280;30155;52.164;21.236;2023-01-13T19:37:53;100043.83;;;6.51;90.09
44453;BME280;30155;52.164;21.236;2023-01-13T19:42:46;100045.05;;;6.53;90.10
44453;BME280;30155;52.164;21.236;2023-01-13T19:47:58;100052.50;;;6.54;90.08
44453;BME280;30155;52.164;21.236;2023-01-13T19:52:53;100050.83;;;6.56;90.07
44453;BME280;30155;52.164;21.236;2023-01-13T19:57:46;100055.67;;;6.58;89.95
44453;BME280;30155;52.164;21.236;2023-01-13T20:02:39;100060.73;;;6.60;89.79
44453;BME280;30155;52.164;21.236;2023-01-13T20:07:38;100065.73;;;6.61;89.76
44453;BME280;30155;52.164;21.236;2023-01-13T20:12:31;100071.59;;;6.61;89.80
44453;BME280;30155;52.164;21.236;2023-01-13T20:17:24;100073.64;;;6.60;89.91
44453;BME280;30155;52.164;21.236;2023-01-13T20:22:17;100079.47;;;6.59;89.75
44453;BME280;30155;52.164;21.236;2023-01-13T20:27:10;100079.52;;;6.61;89.80
44453;BME280;30155;52.164;21.236;2023-01-13T20:32:03;100077.82;;;6.62;89.54
44453;BME280;30155;52.164;21.236;2023-01-13T20:36:56;100082.64;;;6.62;89.59
44453;BME280;30155;52.164;21.236;2023-01-13T20:41:49;100091.92;;;6.61;89.65
44453;BME280;30155;52.164;21.236;2023-01-13T20:47:00;100098.09;;;6.60;89.71
44453;BME280;30155;52.164;21.236;2023-01-13T20:51:54;100104.61;;;6.59;89.67
44453;BME280;30155;52.164;21.236;2023-01-13T20:56:47;100108.57;;;6.59;89.74
44453;BME280;30155;52.164;21.236;2023-01-13T21:01:41;100114.70;;;6.56;89.83
44453;BME280;30155;52.164;21.236;2023-01-13T21:06:34;100117.06;;;6.54;89.96
44453;BME280;30155;52.164;21.236;2023-01-13T21:11:27;100126.67;;;6.53;90.08
44453;BME280;30155;52.164;21.236;2023-01-13T21:16:37;100123.75;;;6.52;90.12
44453;BME280;30155;52.164;21.236;2023-01-13T21:21:31;100126.52;;;6.53;90.35
44453;BME280;30155;52.164;21.236;2023-01-13T21:26:23;100130.46;;;6.53;90.47
44453;BME280;30155;52.164;21.236;2023-01-13T21:31:16;100130.93;;;6.51;90.55
44453;BME280;30155;52.164;21.236;2023-01-13T21:36:13;100133.64;;;6.48;90.74
44453;BME280;30155;52.164;21.236;2023-01-13T21:41:07;100138.10;;;6.47;90.96
44453;BME280;30155;52.164;21.236;2023-01-13T21:46:09;100140.28;;;6.45;90.95
44453;BME280;30155;52.164;21.236;2023-01-13T21:51:20;100150.39;;;6.43;90.97
44453;BME280;30155;52.164;21.236;2023-01-13T21:56:13;100149.86;;;6.43;91.33
44453;BME280;30155;52.164;21.236;2023-01-13T22:01:06;100147.35;;;6.38;91.28
44453;BME280;30155;52.164;21.236;2023-01-13T22:06:02;100144.84;;;6.34;91.15
44453;BME280;30155;52.164;21.236;2023-01-13T22:10:55;100152.98;;;6.30;91.41
44453;BME280;30155;52.164;21.236;2023-01-13T22:15:51;100160.44;;;6.25;91.33
44453;BME280;30155;52.164;21.236;2023-01-13T22:20:44;100168.21;;;6.20;91.24
44453;BME280;30155;52.164;21.236;2023-01-13T22:25:37;100171.11;;;6.19;91.58
44453;BME280;30155;52.164;21.236;2023-01-13T22:30:30;100184.85;;;6.18;91.59
44453;BME280;30155;52.164;21.236;2023-01-13T22:35:23;100188.48;;;6.19;91.67
44453;BME280;30155;52.164;21.236;2023-01-13T22:40:16;100191.03;;;6.17;91.57
44453;BME280;30155;52.164;21.236;2023-01-13T22:45:11;100194.77;;;6.09;91.25
44453;BME280;30155;52.164;21.236;2023-01-13T22:50:06;100194.46;;;5.98;91.27
44453;BME280;30155;52.164;21.236;2023-01-13T22:54:59;100196.89;;;5.87;91.09
44453;BME280;30155;52.164;21.236;2023-01-13T22:59:52;100193.80;;;5.75;91.31
44453;BME280;30155;52.164;21.236;2023-01-13T23:04:45;100200.19;;;5.63;91.09
44453;BME280;30155;52.164;21.236;2023-01-13T23:09:38;100207.08;;;5.52;91.19
44453;BME280;30155;52.164;21.236;2023-01-13T23:14:31;100209.75;;;5.43;91.41
44453;BME280;30155;52.164;21.236;2023-01-13T23:19:24;100212.65;;;5.36;91.69
44453;BME280;30155;52.164;21.236;2023-01-13T23:24:17;100215.58;;;5.30;91.69
44453;BME280;30155;52.164;21.236;2023-01-13T23:29:12;100210.75;;;5.25;91.67
44453;BME280;30155;52.164;21.236;2023-01-13T23:34:05;100215.65;;;5.16;91.48
44453;BME280;30155;52.164;21.236;2023-01-13T23:38:59;100216.48;;;5.10;91.40
44453;BME280;30155;52.164;21.236;2023-01-13T23:43:57;100214.11;;;5.00;91.11
44453;BME280;30155;52.164;21.236;2023-01-13T23:48:51;100217.86;;;4.93;91.32
44453;BME280;30155;52.164;21.236;2023-01-13T23:53:47;100222.48;;;4.87;91.14
44453;BME280;30155;52.164;21.236;2023-01-13T23:58:41;100220.35;;;4.80;91.29
